Time;durP1;ratioP1;P1;durP2;ratioP2;P2;SDS_P1;SDS_P2;PMS_P1;PMS_P2;Temp;Humidity;BMP_temperature;BMP_pressure;BME280_temperature;BME280_humidity;BME280_pressure;Samples;Min_cycle;Max_cycle;Signal;HPM_P1;HPM_P2
2022/12/04 00:01:53;;;;;;;24.07;13.90;;;;;;;-4.33;88.47;103690.44;5032781;28;20120;-77
2022/12/04 00:04:18;;;;;;;24.37;14.20;;;;;;;-4.24;88.00;103693.94;5032747;28;20018;-77
2022/12/04 00:06:44;;;;;;;19.27;12.67;;;;;;;-4.18;87.76;103699.16;5032848;28;20113;-78
2022/12/04 00:09:09;;;;;;;26.07;14.43;;;;;;;-4.15;88.11;103695.69;5032733;28;20047;-78
2022/12/04 00:11:35;;;;;;;20.73;13.20;;;;;;;-4.07;88.15;103693.94;5033458;28;20434;-79
2022/12/04 00:14:01;;;;;;;20.70;12.93;;;;;;;-4.24;88.24;103674.84;5033120;28;20033;-78
2022/12/04 00:16:28;;;;;;;24.37;14.60;;;;;;;-4.09;87.33;103685.28;5033690;28;20088;-79
2022/12/04 00:19:39;;;;;;;20.15;13.18;;;;;;;-4.12;88.39;103704.34;5032451;28;20372;-77
2022/12/04 00:22:13;;;;;;;24.77;13.88;;;;;;;-4.24;89.01;103691.31;4935041;28;20062;-77
2022/12/04 00:24:39;;;;;;;22.73;14.15;;;;;;;-4.45;89.40;103662.66;4936123;29;20023;-79
2022/12/04 00:27:05;;;;;;;20.37;13.90;;;;;;;-4.42;89.27;103671.31;4934694;29;20039;-79
2022/12/04 00:29:31;;;;;;;24.20;15.20;;;;;;;-4.48;89.56;103650.50;5008368;28;20037;-77
2022/12/04 00:31:56;;;;;;;23.63;14.50;;;;;;;-4.18;90.12;103693.94;5032477;28;20028;-79
2022/12/04 00:34:22;;;;;;;25.03;14.27;;;;;;;-4.23;90.24;103687.84;5032648;28;20028;-80
2022/12/04 00:36:47;;;;;;;22.10;15.33;;;;;;;-4.18;89.90;103688.72;5032318;28;20038;-78
2022/12/04 00:39:13;;;;;;;21.47;14.13;;;;;;;-4.19;90.34;103694.81;5032707;28;20018;-79
2022/12/04 00:41:39;;;;;;;23.37;15.20;;;;;;;-4.18;90.07;103691.34;5032201;28;20045;-79
2022/12/04 00:44:05;;;;;;;25.63;14.93;;;;;;;-4.35;90.07;103664.41;5034089;28;20534;-78
2022/12/04 00:46:30;;;;;;;21.87;14.23;;;;;;;-4.21;90.24;103706.06;5034127;28;20381;-78
2022/12/04 00:48:58;;;;;;;21.70;13.83;;;;;;;-4.32;90.65;103695.66;5034081;28;20480;-79
2022/12/04 00:51:24;;;;;;;25.17;14.25;;;;;;;-4.36;91.88;103681.75;5017236;28;20075;-79
2022/12/04 00:53:51;;;;;;;23.38;15.60;;;;;;;-4.26;91.98;103703.47;5035140;28;20029;-78
2022/12/04 00:56:26;;;;;;;22.42;15.43;;;;;;;-4.23;92.62;103695.66;5034576;28;20033;-78
2022/12/04 00:58:57;;;;;;;29.25;15.85;;;;;;;-4.12;92.52;103691.34;5003888;28;20032;-78
2022/12/04 01:01:24;;;;;;;27.95;15.95;;;;;;;-4.10;92.44;103702.63;5043055;28;20109;-77
2022/12/04 01:03:50;;;;;;;22.20;14.80;;;;;;;-4.16;92.19;103700.00;5042191;28;20607;-77
2022/12/04 01:06:22;;;;;;;23.52;15.07;;;;;;;-4.18;92.84;103701.75;5040236;28;20497;-78
2022/12/04 01:08:49;;;;;;;23.73;16.88;;;;;;;-4.38;93.28;103661.78;5038699;28;20041;-80
2022/12/04 01:11:25;;;;;;;22.13;15.27;;;;;;;-4.14;92.72;103698.28;5035779;28;20111;-81
2022/12/04 01:13:54;;;;;;;24.50;16.52;;;;;;;-4.19;92.59;103689.59;5035078;28;20041;-80
2022/12/04 01:16:31;;;;;;;;;;;;;;;-4.07;93.09;103700.03;5036013;28;20044;-80
2022/12/04 01:19:07;;;;;;;28.92;15.35;;;;;;;-4.07;92.46;103715.63;5038983;28;19916;-79
2022/12/04 01:21:33;;;;;;;25.58;16.65;;;;;;;-4.30;93.05;103680.91;5037629;28;20040;-80
2022/12/04 01:23:59;;;;;;;24.75;15.70;;;;;;;-4.21;93.97;103711.28;5038183;28;20034;-82
2022/12/04 01:26:32;;;;;;;28.70;16.03;;;;;;;-4.27;94.50;103701.72;5036367;28;20034;-79
2022/12/04 01:28:58;;;;;;;30.60;16.98;;;;;;;-4.31;94.14;103689.59;5036477;28;20060;-80
2022/12/04 01:31:24;;;;;;;26.23;16.13;;;;;;;-4.25;94.35;103700.00;5036853;28;20053;-78
2022/12/04 01:33:52;;;;;;;25.48;17.02;;;;;;;-4.26;94.84;103692.19;5035888;28;20040;-79
2022/12/04 01:36:22;;;;;;;28.40;17.48;;;;;;;-4.10;94.13;103714.78;5037294;28;20045;-79
2022/12/04 01:38:47;;;;;;;29.13;16.88;;;;;;;-4.13;93.96;103706.97;5039109;28;20505;-80
2022/12/04 01:51:40;;;;;;;26.50;17.58;;;;;;;-4.24;94.78;103713.88;5451617;22;20057;-75
2022/12/04 01:54:20;;;;;;;28.80;17.48;;;;;;;-4.25;95.01;103712.16;5050329;28;20121;-76
2022/12/04 02:01:27;;;;;;;;;;;;;;;;;;;;;
2022/12/04 02:07:49;;;;;;;28.45;17.13;;;;;;;-4.46;93.88;103666.13;4972132;28;20045;-77
2022/12/04 02:11:29;;;;;;;30.88;17.42;;;;;;;-4.49;93.90;103661.78;4971690;28;20474;-79
2022/12/04 02:14:34;;;;;;;29.27;16.52;;;;;;;-4.38;93.71;103670.47;5011227;28;20041;-78
2022/12/04 02:25:37;;;;;;;31.42;18.95;;;;;;;-4.44;93.71;103687.78;4994092;28;20497;-77
2022/12/04 02:28:11;;;;;;;32.75;18.67;;;;;;;-4.33;93.50;103706.94;5002242;28;20026;-77
2022/12/04 02:30:41;;;;;;;31.77;19.85;;;;;;;-4.61;94.14;103653.94;5035063;28;20068;-75
2022/12/04 02:33:30;;;;;;;35.35;17.88;;;;;;;-4.39;93.89;103699.06;5034661;28;20018;-76
2022/12/04 02:47:23;;;;;;;31.45;17.40;;;;;;;-4.48;92.24;103666.09;4942319;28;20500;-78
2022/12/04 02:49:57;;;;;;;29.40;16.20;;;;;;;-4.38;92.92;103680.00;4998343;28;20046;-76
2022/12/04 02:52:35;;;;;;;29.83;17.80;;;;;;;-4.26;92.55;103695.66;4998520;28;20045;-78
2022/12/04 02:55:09;;;;;;;27.23;15.32;;;;;;;-4.41;92.56;103678.25;4999022;28;20059;-77
2022/12/04 02:57:40;;;;;;;36.97;18.33;;;;;;;-4.47;91.72;103688.66;4999173;28;20037;-76
2022/12/04 03:00:57;;;;;;;28.92;18.58;;;;;;;-4.76;93.25;103657.34;4997640;28;20029;-77
2022/12/04 03:04:18;;;;;;;31.25;18.88;;;;;;;-4.78;92.42;103633.06;4941965;29;20055;-78
2022/12/04 03:18:27;;;;;;;34.75;18.33;;;;;;;-4.44;91.50;103711.22;5360481;22;20052;-76
2022/12/04 03:21:03;;;;;;;30.88;19.50;;;;;;;-4.45;91.90;103704.25;5011845;28;20064;-76
2022/12/04 04:03:51;;;;;;;41.90;19.02;;;;;;;-4.76;92.56;103714.53;4989833;28;20493;-77
2022/12/04 04:06:25;;;;;;;34.60;20.73;;;;;;;-4.89;93.27;103704.09;4992419;28;20033;-79
2022/12/04 04:08:55;;;;;;;29.63;18.73;;;;;;;-4.79;93.17;103730.13;4991764;28;20044;-79
2022/12/04 04:11:27;;;;;;;35.67;20.83;;;;;;;-4.78;93.69;103739.66;5004991;28;20034;-78
2022/12/04 04:26:21;;;;;;;29.60;20.42;;;;;;;-4.72;93.63;103729.28;4970666;29;20035;-78
2022/12/04 04:28:46;;;;;;;36.85;19.77;;;;;;;-4.93;93.89;103697.09;5002994;28;20478;-78
2022/12/04 04:31:28;;;;;;;35.17;19.10;;;;;;;-4.62;93.42;103734.56;5013692;28;20033;-76
2022/12/04 04:34:23;;;;;;;32.53;19.60;;;;;;;-4.56;93.57;103734.59;5012399;28;20030;-75
2022/12/04 04:37:01;;;;;;;34.83;19.27;;;;;;;-4.59;92.50;103740.63;5024499;28;20513;-76
2022/12/04 04:39:42;;;;;;;37.65;17.15;;;;;;;-4.67;92.90;103727.56;5021051;28;20030;-77
2022/12/04 04:42:23;;;;;;;33.00;18.30;;;;;;;-4.58;93.96;103733.72;5002076;28;20030;-77
2022/12/04 04:45:14;;;;;;;35.58;19.80;;;;;;;-4.63;92.59;103728.47;5025329;28;20030;-78
2022/12/04 04:47:43;;;;;;;44.40;22.80;;;;;;;-4.65;93.53;103729.31;4986923;28;20428;-79
2022/12/04 04:50:11;;;;;;;34.00;18.88;;;;;;;-4.70;93.37;103727.56;5020702;28;20075;-78
2022/12/04 04:52:41;;;;;;;35.70;18.35;;;;;;;-4.57;93.87;103743.25;5020420;28;20033;-79
2022/12/04 04:55:07;;;;;;;36.28;20.88;;;;;;;-4.59;93.28;103724.16;5020297;28;20037;-78
2022/12/04 04:57:34;;;;;;;40.40;20.70;;;;;;;-4.62;93.09;103731.97;5019185;28;20030;-79
2022/12/04 05:00:04;;;;;;;40.05;17.90;;;;;;;-4.68;93.41;103741.44;5019351;28;20034;-78
2022/12/04 05:02:31;;;;;;;42.75;19.52;;;;;;;-4.77;93.40;103731.00;5019648;28;20393;-77
2022/12/04 05:04:56;;;;;;;38.80;18.77;;;;;;;-4.71;93.89;103736.22;5002014;28;20362;-78
2022/12/04 05:07:22;;;;;;;32.03;18.97;;;;;;;-4.69;93.62;103724.09;5019057;28;20052;-77
2022/12/04 05:09:47;;;;;;;33.87;17.67;;;;;;;-4.51;92.96;103743.28;5019684;28;20033;-78
2022/12/04 05:12:13;;;;;;;33.63;18.33;;;;;;;-4.61;91.98;103720.69;5002244;28;20065;-80
2022/12/04 05:14:38;;;;;;;30.57;18.90;;;;;;;-4.70;92.06;103722.38;5019832;28;20034;-76
2022/12/04 05:17:05;;;;;;;32.90;18.67;;;;;;;-4.60;92.74;103740.63;5019729;28;20049;-78
2022/12/04 05:22:17;;;;;;;33.83;18.20;;;;;;;-4.67;91.71;103726.72;5019874;28;20466;-78
2022/12/04 05:24:44;;;;;;;36.45;18.73;;;;;;;-4.63;91.31;103738.00;5019191;28;20071;-78
2022/12/04 05:27:10;;;;;;;31.43;16.63;;;;;;;-4.70;91.61;103729.28;5020577;28;20381;-79
2022/12/04 05:29:36;;;;;;;32.90;18.47;;;;;;;-4.62;91.69;103724.16;5019621;28;20549;-78
2022/12/04 05:32:02;;;;;;;39.60;21.17;;;;;;;-4.60;91.40;103740.63;5019790;28;20026;-78
2022/12/04 05:34:27;;;;;;;31.98;18.15;;;;;;;-4.59;92.18;103748.44;5019649;28;20038;-77
2022/12/04 05:36:53;;;;;;;33.07;19.17;;;;;;;-4.58;92.44;103741.50;5002450;28;20022;-78
2022/12/04 05:39:18;;;;;;;32.77;17.97;;;;;;;-4.56;91.27;103739.78;5019768;28;20427;-79
2022/12/04 05:41:44;;;;;;;38.10;19.57;;;;;;;-4.56;91.72;103734.59;5019587;28;20120;-77
2022/12/04 05:44:09;;;;;;;33.53;18.10;;;;;;;-4.48;91.11;103741.53;5018871;28;20029;-79
2022/12/04 05:46:35;;;;;;;33.67;18.10;;;;;;;-4.48;90.74;103748.47;5016811;28;20091;-81
2022/12/04 05:49:00;;;;;;;34.60;19.07;;;;;;;-4.50;91.22;103752.81;5016848;28;20466;-77
2022/12/04 05:51:26;;;;;;;31.73;16.10;;;;;;;-4.49;91.25;103747.59;5015658;28;20033;-79
2022/12/04 05:53:51;;;;;;;39.47;20.40;;;;;;;-4.46;91.25;103752.81;5015219;28;20465;-77
2022/12/04 05:56:17;;;;;;;30.63;17.83;;;;;;;-4.43;90.70;103751.97;4997753;28;20131;-77
2022/12/04 05:58:42;;;;;;;35.67;20.23;;;;;;;-4.39;90.68;103756.31;5015302;28;20584;-77
2022/12/04 06:01:17;;;;;;;39.10;18.57;;;;;;;-4.47;90.35;103755.41;4997714;28;20033;-79
2022/12/04 06:03:43;;;;;;;26.45;16.55;;;;;;;-4.50;90.26;103755.41;5014777;28;20061;-76
2022/12/04 06:06:14;;;;;;;32.70;18.40;;;;;;;-4.56;90.76;103755.38;5015737;28;20085;-77
2022/12/04 06:08:40;;;;;;;29.63;16.30;;;;;;;-4.52;91.25;103759.75;5015774;28;20484;-77
2022/12/04 06:11:18;;;;;;;30.33;17.47;;;;;;;-4.50;91.08;103756.28;4997559;28;20025;-77
2022/12/04 06:13:45;;;;;;;34.08;18.73;;;;;;;-4.46;90.30;103763.22;5015466;28;20029;-80
2022/12/04 06:16:14;;;;;;;31.92;18.73;;;;;;;-4.56;90.15;103752.78;5014139;28;20045;-78
2022/12/04 06:18:42;;;;;;;30.02;15.95;;;;;;;-4.71;90.66;103736.22;5015255;28;20390;-79
2022/12/04 06:21:09;;;;;;;28.38;17.05;;;;;;;-4.61;90.40;103762.31;5015275;28;20432;-79
2022/12/04 06:23:35;;;;;;;32.10;17.13;;;;;;;-4.72;90.99;103744.03;5015150;28;20026;-78
2022/12/04 06:26:06;;;;;;;24.98;16.00;;;;;;;-4.62;90.79;103758.84;5015963;28;20045;-78
2022/12/04 06:28:31;;;;;;;29.05;15.90;;;;;;;-4.63;90.53;103754.47;5015683;28;20053;-76
2022/12/04 06:31:06;;;;;;;28.83;16.63;;;;;;;-4.71;90.68;103767.44;5014706;28;20065;-78
2022/12/04 06:33:31;;;;;;;31.70;16.98;;;;;;;-4.81;91.35;103750.06;5014362;28;20025;-77
2022/12/04 06:36:02;;;;;;;35.50;18.43;;;;;;;-4.68;91.57;103761.38;4996801;28;20091;-80
2022/12/04 06:38:28;;;;;;;34.63;17.23;;;;;;;-4.72;91.43;103760.50;5013904;28;20033;-79
2022/12/04 06:40:54;;;;;;;33.10;18.75;;;;;;;-4.72;91.08;103755.28;5013798;28;20034;-77
2022/12/04 06:43:20;;;;;;;36.23;17.10;;;;;;;-4.68;90.59;103762.25;5014271;28;20028;-76
2022/12/04 06:45:45;;;;;;;32.87;18.40;;;;;;;-4.65;91.52;103765.72;5014413;28;20436;-76
2022/12/04 06:48:11;;;;;;;32.63;18.37;;;;;;;-4.54;91.28;103764.06;4997398;28;20435;-77
2022/12/04 06:50:36;;;;;;;35.83;17.83;;;;;;;-4.47;90.65;103760.63;5014159;28;20386;-74
2022/12/04 06:53:02;;;;;;;31.67;17.43;;;;;;;-4.54;90.20;103761.47;4996718;28;20033;-77
2022/12/04 06:55:30;;;;;;;32.87;17.53;;;;;;;-4.57;90.99;103774.47;5030704;28;20116;-77
2022/12/04 06:57:55;;;;;;;33.10;19.50;;;;;;;-4.70;91.09;103763.97;5033925;28;20025;-76
2022/12/04 07:00:21;;;;;;;33.63;18.27;;;;;;;-4.71;91.30;103763.97;5036108;28;20025;-75
2022/12/04 07:02:46;;;;;;;28.83;16.17;;;;;;;-4.89;91.86;103715.34;5034283;28;20120;-76
2022/12/04 07:05:12;;;;;;;35.33;18.43;;;;;;;-4.71;92.08;103759.63;5015738;28;20030;-74
2022/12/04 07:07:37;;;;;;;32.33;16.93;;;;;;;-4.63;91.86;103777.00;5015764;28;20449;-73
2022/12/04 07:10:04;;;;;;;42.30;19.03;;;;;;;-4.72;92.01;103764.81;5033567;28;20078;-73
2022/12/04 07:12:29;;;;;;;33.38;19.50;;;;;;;-4.84;92.33;103762.16;5033478;28;20116;-73
2022/12/04 07:14:55;;;;;;;33.57;17.93;;;;;;;-4.82;93.35;103769.13;5033200;28;20071;-73
2022/12/04 07:17:22;;;;;;;33.33;17.80;;;;;;;-4.76;92.69;103768.28;5033145;28;20045;-75
2022/12/04 07:19:48;;;;;;;31.75;18.73;;;;;;;-4.74;92.81;103757.03;5015344;28;20037;-76
2022/12/04 07:22:13;;;;;;;38.00;19.43;;;;;;;-4.66;92.78;103770.06;5033390;28;20385;-72
2022/12/04 07:25:22;;;;;;;40.13;21.33;;;;;;;-4.76;92.21;103745.75;5033026;28;20025;-80
2022/12/04 07:27:51;;;;;;;41.28;20.67;;;;;;;-4.60;91.78;103774.44;5004335;28;20052;-77
2022/12/04 07:30:16;;;;;;;73.35;31.70;;;;;;;-4.60;92.53;103770.09;5033406;28;20082;-72
2022/12/04 07:32:42;;;;;;;37.13;18.33;;;;;;;-4.45;91.82;103784.91;5033470;28;20207;-76
2022/12/04 07:35:07;;;;;;;30.80;17.27;;;;;;;-4.54;92.16;103766.66;5034349;28;20032;-81
2022/12/04 07:37:36;;;;;;;32.77;18.80;;;;;;;-4.49;93.11;103783.16;5034383;28;20087;-79
2022/12/04 07:40:03;;;;;;;35.38;18.60;;;;;;;-4.42;92.56;103779.72;5034634;28;20025;-78
2022/12/04 07:42:28;;;;;;;31.35;18.80;;;;;;;-4.49;91.69;103772.75;5031707;28;20029;-73
2022/12/04 07:45:14;;;;;;;29.17;17.58;;;;;;;-4.54;91.46;103762.34;5006988;28;20092;-78
2022/12/04 07:47:40;;;;;;;35.43;16.20;;;;;;;-4.61;91.63;103757.97;5037610;28;20036;-74
2022/12/04 07:50:18;;;;;;;30.20;15.40;;;;;;;-4.63;91.43;103748.41;5037465;28;20033;-79
2022/12/04 07:56:18;;;;;;;31.00;17.73;;;;;;;-4.91;90.36;103714.47;5011708;28;20037;-74
2022/12/04 07:58:48;;;;;;;29.13;16.80;;;;;;;-4.74;90.82;103751.81;5029910;28;20357;-76
2022/12/04 08:01:21;;;;;;;31.85;17.20;;;;;;;-4.53;90.75;103776.22;5031404;28;20037;-74
2022/12/04 08:03:49;;;;;;;29.17;16.50;;;;;;;-4.46;90.96;103789.25;5015617;28;20120;-74
2022/12/04 08:06:17;;;;;;;27.55;16.27;;;;;;;-4.36;90.38;103784.94;5034077;28;20037;-74
2022/12/04 08:08:43;;;;;;;30.20;16.35;;;;;;;-4.28;90.28;103783.25;5015950;28;20029;-73
2022/12/04 08:11:11;;;;;;;26.73;16.40;;;;;;;-4.30;88.76;103776.31;5046969;28;20064;-73
2022/12/04 08:13:36;;;;;;;33.28;16.10;;;;;;;-4.28;89.43;103783.25;5036449;28;20097;-73
2022/12/04 08:16:03;;;;;;;33.00;19.67;;;;;;;-4.27;89.07;103779.78;5054266;28;20017;-73
2022/12/04 08:18:33;;;;;;;26.85;17.10;;;;;;;-4.28;88.12;103778.06;5044846;28;20060;-74
2022/12/04 08:21:07;;;;;;;31.40;16.33;;;;;;;-4.25;88.29;103772.00;5034654;28;20393;-74
2022/12/04 08:23:34;;;;;;;27.13;16.20;;;;;;;-4.24;88.46;103774.59;5033521;28;20457;-72
2022/12/04 08:26:00;;;;;;;26.15;16.65;;;;;;;-4.42;88.55;103771.91;5033766;28;20029;-72
2022/12/04 08:28:27;;;;;;;31.63;18.27;;;;;;;-4.59;88.85;103744.97;5032559;28;20038;-74
2022/12/04 08:30:53;;;;;;;35.72;17.13;;;;;;;-4.33;88.77;103787.59;5032478;28;20037;-73
2022/12/04 08:33:18;;;;;;;31.63;17.07;;;;;;;-4.33;87.97;103784.97;5032184;28;20373;-73
2022/12/04 08:35:44;;;;;;;28.23;14.27;;;;;;;-4.28;88.67;103772.84;5031886;28;20099;-75
2022/12/04 08:38:10;;;;;;;30.67;17.27;;;;;;;-4.18;88.05;103785.03;5032146;28;20095;-76
2022/12/04 08:40:37;;;;;;;27.60;17.13;;;;;;;-4.24;87.92;103768.53;5031846;28;20025;-77
2022/12/04 08:43:06;;;;;;;34.58;16.52;;;;;;;-4.21;88.19;103769.41;5014063;28;20170;-77
2022/12/04 08:45:31;;;;;;;33.83;17.02;;;;;;;-4.16;87.57;103772.88;5014361;28;20448;-74
2022/12/04 08:47:57;;;;;;;25.93;14.27;;;;;;;-4.15;87.46;103777.22;5031888;28;20037;-78
2022/12/04 08:50:23;;;;;;;28.10;16.53;;;;;;;-4.22;87.25;103779.81;5031903;28;20083;-74
2022/12/04 08:52:48;;;;;;;29.53;16.53;;;;;;;-4.33;88.20;103779.78;5032229;28;20029;-75
2022/12/04 08:55:14;;;;;;;26.23;16.97;;;;;;;-4.33;87.52;103790.19;5013934;28;20103;-74
2022/12/04 08:57:39;;;;;;;30.57;17.70;;;;;;;-4.43;88.44;103773.66;5031414;28;20033;-74
2022/12/04 09:00:05;;;;;;;33.27;17.80;;;;;;;-4.37;88.01;103775.41;5031643;28;20044;-73
2022/12/04 09:02:31;;;;;;;26.75;16.02;;;;;;;-4.33;87.66;103784.13;5031277;28;20033;-77
2022/12/04 09:04:57;;;;;;;30.63;17.10;;;;;;;-4.45;88.13;103771.91;5032083;28;20354;-74
2022/12/04 09:07:25;;;;;;;27.20;15.13;;;;;;;-4.45;88.68;103777.09;5015406;28;20488;-73
2022/12/04 09:09:51;;;;;;;26.48;15.35;;;;;;;-4.57;88.79;103764.91;5032137;28;20092;-72
2022/12/04 09:12:16;;;;;;;31.53;16.47;;;;;;;-4.50;89.00;103768.41;5031927;28;20030;-74
2022/12/04 09:14:42;;;;;;;24.63;14.83;;;;;;;-4.41;89.08;103771.03;5031876;28;20029;-72
2022/12/04 09:17:09;;;;;;;27.27;14.43;;;;;;;-4.36;88.84;103769.31;5031495;28;20385;-73
2022/12/04 09:19:36;;;;;;;38.47;18.77;;;;;;;-4.47;87.82;103765.81;5031903;28;20080;-71
2022/12/04 09:22:04;;;;;;;40.50;16.65;;;;;;;-4.36;88.84;103784.94;5032757;28;20037;-75
2022/12/04 09:24:30;;;;;;;25.63;14.23;;;;;;;-4.37;88.16;103778.00;5035526;28;20121;-72
2022/12/04 09:26:55;;;;;;;28.10;14.23;;;;;;;-4.44;88.82;103777.09;5035692;28;20029;-74
2022/12/04 09:29:46;;;;;;;29.95;15.43;;;;;;;-4.40;88.79;103780.59;5035506;28;20282;-73
2022/12/04 09:32:13;;;;;;;30.63;17.38;;;;;;;-4.34;88.58;103770.19;5035827;28;20029;-74
2022/12/04 09:34:38;;;;;;;27.13;15.80;;;;;;;-4.32;89.53;103765.91;5035489;28;20366;-74
2022/12/04 09:37:03;;;;;;;27.17;14.97;;;;;;;-4.40;89.05;103751.97;5035222;28;20032;-75
2022/12/04 09:39:29;;;;;;;28.53;17.00;;;;;;;-4.34;89.23;103754.59;5035868;28;20377;-77
2022/12/04 09:42:23;;;;;;;31.50;17.30;;;;;;;-4.38;89.54;103760.66;5035543;28;20033;-76
2022/12/04 09:44:56;;;;;;;26.60;14.75;;;;;;;-4.37;89.70;103757.19;5017553;28;20384;-75
2022/12/04 09:47:36;;;;;;;26.77;16.45;;;;;;;-4.29;89.68;103759.84;5037230;28;20025;-79
2022/12/04 09:50:17;;;;;;;26.38;15.32;;;;;;;-4.16;89.46;103759.00;5038702;28;20039;-75
2022/12/04 09:52:55;;;;;;;23.92;15.10;;;;;;;-4.10;89.31;103757.28;5038772;28;20392;-77
2022/12/04 09:55:41;;;;;;;27.98;15.25;;;;;;;-3.98;88.81;103745.19;5039260;28;20032;-75
2022/12/04 09:58:22;;;;;;;24.60;14.65;;;;;;;-4.09;88.99;103747.75;5036532;28;20489;-74
2022/12/04 10:01:16;;;;;;;25.50;14.90;;;;;;;-4.11;90.00;103749.47;4997053;28;20026;-77
2022/12/04 10:03:41;;;;;;;25.50;14.98;;;;;;;-4.13;90.07;103752.06;5035983;28;20072;-77
2022/12/04 10:06:17;;;;;;;25.90;15.27;;;;;;;-4.20;90.99;103745.13;5035309;28;20041;-77
2022/12/04 10:08:45;;;;;;;25.27;14.68;;;;;;;-4.27;91.01;103732.09;5033863;28;20116;-78
2022/12/04 10:11:26;;;;;;;31.00;14.77;;;;;;;-4.12;91.61;103747.72;5036055;28;20484;-79
2022/12/04 10:14:09;;;;;;;25.25;13.93;;;;;;;-4.09;91.74;103752.94;5036239;28;20112;-80
2022/12/04 10:16:57;;;;;;;29.02;16.10;;;;;;;-4.08;91.26;103747.75;5015739;28;20036;-78
2022/12/04 10:19:48;;;;;;;28.33;15.32;;;;;;;-4.03;91.89;103744.31;4975644;28;20049;-76
2022/12/04 10:22:28;;;;;;;24.25;13.48;;;;;;;-4.03;91.08;103736.50;4976910;28;20113;-73
2022/12/04 10:24:57;;;;;;;29.20;15.68;;;;;;;-4.01;91.88;103737.38;4975896;28;20054;-76
2022/12/04 10:27:26;;;;;;;;;;;;;;;-3.92;91.11;103743.44;4976243;28;20034;-74
2022/12/04 10:29:57;;;;;;;27.88;15.43;;;;;;;-3.87;92.04;103751.28;4977590;28;19960;-75
2022/12/04 10:32:30;;;;;;;24.20;13.77;;;;;;;-3.93;91.84;103733.03;4977425;28;20109;-75
2022/12/04 10:35:02;;;;;;;26.92;15.20;;;;;;;-3.87;91.03;103746.06;4982229;28;20035;-76
2022/12/04 10:37:46;;;;;;;23.48;14.38;;;;;;;-4.04;92.23;103732.16;4979236;28;20074;-75
2022/12/04 10:40:22;;;;;;;22.33;13.80;;;;;;;-4.04;92.80;103734.75;4976203;28;20026;-75
2022/12/04 10:43:13;;;;;;;31.77;14.15;;;;;;;-4.08;91.63;103728.66;4975844;28;20034;-71
2022/12/04 10:45:39;;;;;;;26.83;14.43;;;;;;;-4.16;92.71;103736.44;4975766;28;20157;-73
2022/12/04 10:48:06;;;;;;;27.83;14.90;;;;;;;-4.29;93.49;103711.28;4975673;28;20062;-75
2022/12/04 10:50:33;;;;;;;31.65;16.95;;;;;;;-4.14;94.21;103729.50;4981413;28;20034;-73
2022/12/04 10:52:58;;;;;;;34.58;19.10;;;;;;;-4.16;94.93;103723.44;4977055;28;20078;-75
2022/12/04 10:55:35;;;;;;;26.63;16.70;;;;;;;-4.08;94.92;103724.31;4976150;28;20027;-76
2022/12/04 10:58:01;;;;;;;27.10;15.93;;;;;;;-4.05;94.85;103723.44;4975768;28;20122;-75
2022/12/04 11:00:29;;;;;;;30.45;15.82;;;;;;;-3.88;95.24;103726.09;4975381;28;20035;-75
2022/12/04 11:02:58;;;;;;;25.58;14.90;;;;;;;-3.83;94.60;103724.38;4975057;28;20057;-74
2022/12/04 11:05:31;;;;;;;25.08;14.15;;;;;;;-3.80;94.00;103720.03;4974959;28;20614;-72
2022/12/04 11:07:59;;;;;;;26.50;14.43;;;;;;;-3.74;93.84;103719.19;4975104;28;20022;-75
2022/12/04 11:10:42;;;;;;;29.20;14.85;;;;;;;-3.90;93.96;103709.59;4974012;28;20046;-76
2022/12/04 11:13:10;;;;;;;25.20;13.10;;;;;;;-4.00;94.28;103705.25;4975694;28;20022;-71
2022/12/04 11:16:02;;;;;;;27.27;17.73;;;;;;;-4.01;94.19;103713.94;4975030;28;20082;-74
2022/12/04 11:18:34;;;;;;;25.50;14.35;;;;;;;-4.26;95.29;103671.38;5009611;28;20083;-74
2022/12/04 11:21:12;;;;;;;24.95;13.35;;;;;;;-4.00;95.02;103690.50;5029786;28;20046;-72
2022/12/04 11:23:44;;;;;;;30.80;14.65;;;;;;;-4.03;94.65;103679.22;5022114;28;20030;-75
2022/12/04 11:26:11;;;;;;;26.67;14.60;;;;;;;-4.02;94.74;103676.63;5013862;28;20496;-75
2022/12/04 11:28:39;;;;;;;30.65;17.80;;;;;;;-3.98;94.47;103698.31;5010761;28;20067;-75
2022/12/04 11:31:07;;;;;;;30.55;16.25;;;;;;;-3.96;94.84;103696.59;5033776;28;20048;-78
2022/12/04 11:33:32;;;;;;;27.50;14.30;;;;;;;-3.93;93.75;103704.41;5033638;28;20049;-75
2022/12/04 11:36:02;;;;;;;26.00;14.20;;;;;;;-3.92;93.89;103696.59;5034372;28;20464;-73
2022/12/04 11:38:32;;;;;;;23.70;13.32;;;;;;;-3.91;93.75;103685.31;5036317;28;20032;-73
2022/12/04 11:40:58;;;;;;;26.83;17.17;;;;;;;-4.03;93.67;103684.44;5044792;28;20041;-75
2022/12/04 11:43:29;;;;;;;26.13;15.73;;;;;;;-4.02;94.37;103692.25;5051165;28;20111;-75
2022/12/04 11:46:02;;;;;;;25.73;15.15;;;;;;;-4.01;94.42;103685.31;5034784;28;20067;-75
2022/12/04 11:48:39;;;;;;;24.08;13.80;;;;;;;-4.11;94.40;103676.59;5053902;28;20029;-77
2022/12/04 11:51:25;;;;;;;23.75;14.10;;;;;;;-4.15;95.05;103660.09;5053832;28;20115;-75
2022/12/04 11:54:33;;;;;;;27.75;14.25;;;;;;;-3.79;95.04;103692.25;5052830;28;20423;-74
2022/12/04 11:57:11;;;;;;;27.05;15.57;;;;;;;-3.78;93.70;103699.19;5032731;28;20071;-73
2022/12/04 11:59:53;;;;;;;26.23;15.70;;;;;;;-3.79;93.11;103692.25;5052338;28;20044;-74
2022/12/04 12:02:38;;;;;;;28.67;13.93;;;;;;;-3.82;93.36;103700.06;5036103;28;20029;-74
2022/12/04 12:05:31;;;;;;;23.60;13.52;;;;;;;-3.81;93.79;103686.16;5052309;28;20036;-70
2022/12/04 12:08:25;;;;;;;39.40;20.15;;;;;;;-3.77;93.63;103683.56;5052459;28;20483;-69
2022/12/04 12:11:52;;;;;;;25.73;14.30;;;;;;;-3.81;93.47;103679.22;5052345;28;20123;-71
2022/12/04 12:15:05;;;;;;;27.63;15.05;;;;;;;-3.94;92.92;103687.03;4971253;28;20034;-72
2022/12/04 12:18:13;;;;;;;27.25;16.60;;;;;;;-3.99;94.01;103681.84;5034477;28;20053;-73
2022/12/04 12:20:51;;;;;;;24.42;14.30;;;;;;;-3.89;94.03;103674.88;5015111;28;20040;-71
2022/12/04 12:23:47;;;;;;;23.85;12.35;;;;;;;-3.80;93.13;103672.28;5052086;28;20067;-70
2022/12/04 12:26:17;;;;;;;28.23;14.85;;;;;;;-3.72;92.79;103687.94;5052206;28;20052;-70
2022/12/04 12:29:04;;;;;;;28.35;15.80;;;;;;;-3.72;92.84;103680.13;5034463;28;20375;-75
2022/12/04 12:32:09;;;;;;;22.05;13.48;;;;;;;-3.80;93.01;103672.28;5052398;28;20021;-75
2022/12/04 12:39:02;;;;;;;21.20;12.25;;;;;;;-3.66;92.66;103677.50;5002680;28;20426;-78
2022/12/04 12:41:37;;;;;;;23.10;12.50;;;;;;;-3.80;92.01;103662.72;5001364;28;20037;-75
2022/12/04 12:44:33;;;;;;;24.30;14.43;;;;;;;-3.62;92.34;103666.22;5014545;28;20032;-74
2022/12/04 12:47:08;;;;;;;23.63;12.70;;;;;;;-3.84;92.00;103666.22;5032056;28;20068;-74
2022/12/04 12:49:56;;;;;;;23.33;13.70;;;;;;;-3.89;92.62;103675.75;5032037;28;20508;-76
2022/12/04 12:53:00;;;;;;;18.70;11.27;;;;;;;-3.90;92.70;103689.66;5032314;28;20065;-75
2022/12/04 12:55:49;;;;;;;22.52;12.30;;;;;;;-3.91;93.45;103682.69;4990435;28;20061;-76
2022/12/04 12:58:31;;;;;;;21.08;12.00;;;;;;;-3.98;92.05;103678.38;5035439;28;20168;-76
2022/12/04 13:01:14;;;;;;;21.73;11.93;;;;;;;-4.01;92.91;103680.97;5035690;28;20179;-76
2022/12/04 13:03:53;;;;;;;19.67;11.43;;;;;;;-3.97;94.35;103681.84;5035663;28;20033;-76
2022/12/04 13:06:29;;;;;;;21.42;11.15;;;;;;;-3.94;92.73;103684.44;5035960;28;20029;-75
2022/12/04 13:09:19;;;;;;;16.73;9.55;;;;;;;-3.91;93.66;103685.31;5036062;28;20040;-74
2022/12/04 13:11:47;;;;;;;20.70;10.02;;;;;;;-3.88;93.64;103669.69;5035508;28;20491;-73
2022/12/04 13:14:13;;;;;;;15.68;10.65;;;;;;;-3.82;92.62;103674.88;5018639;28;20033;-76
2022/12/04 13:17:23;;;;;;;20.67;12.13;;;;;;;-3.82;92.67;103684.44;5019385;28;20033;-74
2022/12/04 13:19:54;;;;;;;19.67;11.85;;;;;;;-3.95;92.89;103672.28;5014026;28;20041;-73
2022/12/04 13:23:05;;;;;;;16.58;10.60;;;;;;;-3.95;93.84;103680.09;5017874;28;20083;-74
2022/12/04 13:25:53;;;;;;;21.15;12.25;;;;;;;-3.99;93.30;103666.22;5025122;28;20060;-74
2022/12/04 13:29:00;;;;;;;13.02;8.25;;;;;;;-3.95;93.34;103667.09;5036090;28;20488;-73
2022/12/04 13:32:15;;;;;;;18.35;11.43;;;;;;;-3.93;93.47;103666.22;5036748;28;20037;-70
2022/12/04 13:34:46;;;;;;;16.80;8.63;;;;;;;-3.85;93.35;103668.81;5039679;28;20065;-74